Waverly, Illinois
Current Conditions -  °F | °C
As of 6:35 AM on Thursday 23 Oct 2014 (Local Time) from KIJX Reporting Station
Clear Clear  
Wind Chill: 43°   Ceiling: Unl
Heat Index: 47°   Visibility: 10mi
Dew Point: 40°   Wind: 8mph
Humidity: 78%   Direction: 180°S
Pressure: 30.19"   Gusts: NA
Location:  39.59°N, 89.95°W
Report Text: KIJX 231135Z AUTO 18007KT 10SM CLR 08/05 A3019 RMK AO2 T00810045
Loading
Personal Weather Stations






























Interactive Weather Map
Tropical Storm Tracking
New forecast layout! Learn more

10-Day Weather Forecast

Advertisements
Track Severe Weather on mobile